sensor_id;sensor_type;location;lat;lon;timestamp;P1;durP1;ratioP1;P2;durP2;ratioP2
74229;SDS011;62589;12.568;99.958;2024-03-23T00:55:35;18.85;;;12.85;;
74229;SDS011;62589;12.568;99.958;2024-03-23T00:58:02;18.58;;;13.15;;
74229;SDS011;62589;12.568;99.958;2024-03-23T01:00:29;17.65;;;14.05;;
74229;SDS011;62589;12.568;99.958;2024-03-23T01:02:55;17.88;;;13.25;;
74229;SDS011;62589;12.568;99.958;2024-03-23T01:05:22;17.92;;;12.73;;
74229;SDS011;62589;12.568;99.958;2024-03-23T01:07:48;14.32;;;12.77;;
74229;SDS011;62589;12.568;99.958;2024-03-23T01:10:15;19.55;;;12.60;;
74229;SDS011;62589;12.568;99.958;2024-03-23T01:12:42;18.27;;;12.10;;
74229;SDS011;62589;12.568;99.958;2024-03-23T01:15:08;15.48;;;12.43;;
74229;SDS011;62589;12.568;99.958;2024-03-23T01:17:35;19.73;;;12.35;;
74229;SDS011;62589;12.568;99.958;2024-03-23T01:20:02;15.43;;;12.02;;
74229;SDS011;62589;12.568;99.958;2024-03-23T01:22:29;17.88;;;12.50;;
74229;SDS011;62589;12.568;99.958;2024-03-23T01:24:56;13.48;;;11.57;;
74229;SDS011;62589;12.568;99.958;2024-03-23T01:27:22;14.50;;;11.43;;
74229;SDS011;62589;12.568;99.958;2024-03-23T01:29:49;16.73;;;12.52;;
74229;SDS011;62589;12.568;99.958;2024-03-23T01:32:18;13.18;;;11.52;;
74229;SDS011;62589;12.568;99.958;2024-03-23T01:34:45;13.55;;;11.85;;
74229;SDS011;62589;12.568;99.958;2024-03-23T01:37:11;15.48;;;12.63;;
74229;SDS011;62589;12.568;99.958;2024-03-23T01:39:38;19.33;;;12.48;;
74229;SDS011;62589;12.568;99.958;2024-03-23T01:42:05;17.55;;;12.77;;
74229;SDS011;62589;12.568;99.958;2024-03-23T01:44:31;18.05;;;12.60;;
74229;SDS011;62589;12.568;99.958;2024-03-23T01:46:58;14.90;;;12.10;;
74229;SDS011;62589;12.568;99.958;2024-03-23T01:49:24;15.68;;;11.18;;
74229;SDS011;62589;12.568;99.958;2024-03-23T01:51:51;12.63;;;10.98;;
74229;SDS011;62589;12.568;99.958;2024-03-23T01:54:18;16.77;;;12.27;;
74229;SDS011;62589;12.568;99.958;2024-03-23T01:56:45;13.90;;;11.10;;
74229;SDS011;62589;12.568;99.958;2024-03-23T01:59:13;18.42;;;12.57;;
74229;SDS011;62589;12.568;99.958;2024-03-23T02:01:39;15.57;;;11.80;;
74229;SDS011;62589;12.568;99.958;2024-03-23T02:04:06;20.38;;;11.90;;
74229;SDS011;62589;12.568;99.958;2024-03-23T02:06:35;15.07;;;12.00;;
74229;SDS011;62589;12.568;99.958;2024-03-23T02:09:01;14.43;;;11.45;;
74229;SDS011;62589;12.568;99.958;2024-03-23T02:11:29;16.10;;;11.93;;
74229;SDS011;62589;12.568;99.958;2024-03-23T02:13:55;13.15;;;11.73;;
74229;SDS011;62589;12.568;99.958;2024-03-23T02:16:23;22.90;;;11.95;;
74229;SDS011;62589;12.568;99.958;2024-03-23T02:18:50;17.35;;;11.57;;
74229;SDS011;62589;12.568;99.958;2024-03-23T02:21:16;16.05;;;11.80;;
74229;SDS011;62589;12.568;99.958;2024-03-23T02:23:43;17.90;;;12.30;;
74229;SDS011;62589;12.568;99.958;2024-03-23T02:26:10;20.65;;;12.20;;
74229;SDS011;62589;12.568;99.958;2024-03-23T02:28:36;19.70;;;11.68;;
74229;SDS011;62589;12.568;99.958;2024-03-23T02:31:03;18.20;;;11.52;;
74229;SDS011;62589;12.568;99.958;2024-03-23T02:33:30;18.75;;;11.07;;
74229;SDS011;62589;12.568;99.958;2024-03-23T02:35:57;15.48;;;10.73;;
74229;SDS011;62589;12.568;99.958;2024-03-23T02:38:24;16.35;;;10.63;;
74229;SDS011;62589;12.568;99.958;2024-03-23T02:40:50;18.67;;;11.27;;
74229;SDS011;62589;12.568;99.958;2024-03-23T02:43:17;16.30;;;10.43;;
74229;SDS011;62589;12.568;99.958;2024-03-23T02:45:44;19.80;;;11.10;;
74229;SDS011;62589;12.568;99.958;2024-03-23T02:48:10;16.88;;;10.63;;
74229;SDS011;62589;12.568;99.958;2024-03-23T02:50:37;18.55;;;10.82;;
74229;SDS011;62589;12.568;99.958;2024-03-23T02:53:04;19.17;;;11.05;;
74229;SDS011;62589;12.568;99.958;2024-03-23T02:55:30;17.75;;;10.43;;
74229;SDS011;62589;12.568;99.958;2024-03-23T02:57:57;16.83;;;10.82;;
74229;SDS011;62589;12.568;99.958;2024-03-23T03:00:27;17.73;;;10.82;;
74229;SDS011;62589;12.568;99.958;2024-03-23T03:02:54;15.75;;;11.00;;
74229;SDS011;62589;12.568;99.958;2024-03-23T03:05:21;14.15;;;10.60;;
74229;SDS011;62589;12.568;99.958;2024-03-23T03:07:48;15.80;;;11.60;;
74229;SDS011;62589;12.568;99.958;2024-03-23T03:10:15;19.30;;;10.18;;
74229;SDS011;62589;12.568;99.958;2024-03-23T03:12:41;17.00;;;11.43;;
74229;SDS011;62589;12.568;99.958;2024-03-23T03:15:08;15.45;;;11.38;;
74229;SDS011;62589;12.568;99.958;2024-03-23T03:17:34;20.48;;;11.75;;
74229;SDS011;62589;12.568;99.958;2024-03-23T03:20:01;14.43;;;11.07;;
74229;SDS011;62589;12.568;99.958;2024-03-23T03:22:30;17.55;;;11.95;;
74229;SDS011;62589;12.568;99.958;2024-03-23T03:24:56;16.83;;;11.00;;
74229;SDS011;62589;12.568;99.958;2024-03-23T03:27:23;20.13;;;10.60;;
74229;SDS011;62589;12.568;99.958;2024-03-23T03:29:50;20.15;;;11.02;;
74229;SDS011;62589;12.568;99.958;2024-03-23T03:32:16;15.85;;;11.20;;
74229;SDS011;62589;12.568;99.958;2024-03-23T03:34:43;19.50;;;10.55;;
74229;SDS011;62589;12.568;99.958;2024-03-23T03:37:09;17.25;;;10.85;;
74229;SDS011;62589;12.568;99.958;2024-03-23T03:39:36;16.75;;;11.25;;
74229;SDS011;62589;12.568;99.958;2024-03-23T03:42:03;15.68;;;10.82;;
74229;SDS011;62589;12.568;99.958;2024-03-23T03:44:32;19.33;;;11.48;;
74229;SDS011;62589;12.568;99.958;2024-03-23T03:46:58;17.20;;;11.18;;
74229;SDS011;62589;12.568;99.958;2024-03-23T03:49:25;20.98;;;11.60;;
74229;SDS011;62589;12.568;99.958;2024-03-23T03:51:52;18.98;;;11.10;;
74229;SDS011;62589;12.568;99.958;2024-03-23T03:54:18;16.85;;;11.55;;
74229;SDS011;62589;12.568;99.958;2024-03-23T03:56:45;17.58;;;10.95;;
74229;SDS011;62589;12.568;99.958;2024-03-23T03:59:11;20.33;;;11.52;;
74229;SDS011;62589;12.568;99.958;2024-03-23T04:01:38;18.13;;;11.00;;
74229;SDS011;62589;12.568;99.958;2024-03-23T04:04:05;18.23;;;10.98;;
74229;SDS011;62589;12.568;99.958;2024-03-23T04:06:32;18.30;;;11.48;;
74229;SDS011;62589;12.568;99.958;2024-03-23T04:09:01;18.08;;;10.43;;
74229;SDS011;62589;12.568;99.958;2024-03-23T04:11:28;19.80;;;10.93;;
74229;SDS011;62589;12.568;99.958;2024-03-23T04:13:54;19.25;;;10.43;;
74229;SDS011;62589;12.568;99.958;2024-03-23T04:16:27;17.30;;;10.13;;
74229;SDS011;62589;12.568;99.958;2024-03-23T04:18:54;18.58;;;11.15;;
74229;SDS011;62589;12.568;99.958;2024-03-23T04:21:24;15.95;;;10.80;;
74229;SDS011;62589;12.568;99.958;2024-03-23T04:23:50;19.23;;;11.55;;
74229;SDS011;62589;12.568;99.958;2024-03-23T04:26:17;20.25;;;11.48;;
74229;SDS011;62589;12.568;99.958;2024-03-23T04:28:44;16.60;;;10.65;;
74229;SDS011;62589;12.568;99.958;2024-03-23T04:31:11;16.40;;;11.13;;
74229;SDS011;62589;12.568;99.958;2024-03-23T04:33:37;16.70;;;10.55;;
74229;SDS011;62589;12.568;99.958;2024-03-23T04:36:04;28.85;;;11.82;;
74229;SDS011;62589;12.568;99.958;2024-03-23T04:38:32;16.20;;;10.70;;
74229;SDS011;62589;12.568;99.958;2024-03-23T04:40:59;18.38;;;12.02;;
74229;SDS011;62589;12.568;99.958;2024-03-23T04:43:27;20.35;;;11.77;;
74229;SDS011;62589;12.568;99.958;2024-03-23T04:45:54;17.58;;;11.27;;
74229;SDS011;62589;12.568;99.958;2024-03-23T04:48:21;21.83;;;12.07;;
74229;SDS011;62589;12.568;99.958;2024-03-23T04:50:48;19.65;;;11.98;;
74229;SDS011;62589;12.568;99.958;2024-03-23T04:53:15;21.13;;;11.25;;
74229;SDS011;62589;12.568;99.958;2024-03-23T04:55:43;17.85;;;11.50;;
74229;SDS011;62589;12.568;99.958;2024-03-23T04:58:10;20.42;;;11.85;;
74229;SDS011;62589;12.568;99.958;2024-03-23T05:00:36;17.98;;;11.13;;
74229;SDS011;62589;12.568;99.958;2024-03-23T05:03:03;18.42;;;11.55;;
74229;SDS011;62589;12.568;99.958;2024-03-23T05:05:30;20.45;;;11.73;;
74229;SDS011;62589;12.568;99.958;2024-03-23T05:07:57;19.77;;;12.00;;
74229;SDS011;62589;12.568;99.958;2024-03-23T05:10:23;19.70;;;11.82;;
74229;SDS011;62589;12.568;99.958;2024-03-23T05:12:50;19.48;;;10.90;;
74229;SDS011;62589;12.568;99.958;2024-03-23T05:15:17;22.48;;;11.73;;
74229;SDS011;62589;12.568;99.958;2024-03-23T05:17:43;26.98;;;11.55;;
74229;SDS011;62589;12.568;99.958;2024-03-23T05:20:10;19.33;;;11.25;;
74229;SDS011;62589;12.568;99.958;2024-03-23T05:22:38;20.15;;;11.80;;
74229;SDS011;62589;12.568;99.958;2024-03-23T05:25:05;19.58;;;11.45;;
74229;SDS011;62589;12.568;99.958;2024-03-23T05:27:33;20.92;;;11.98;;
74229;SDS011;62589;12.568;99.958;2024-03-23T05:30:00;14.65;;;11.02;;
74229;SDS011;62589;12.568;99.958;2024-03-23T05:32:26;17.88;;;11.93;;
74229;SDS011;62589;12.568;99.958;2024-03-23T05:34:53;18.65;;;11.88;;
74229;SDS011;62589;12.568;99.958;2024-03-23T05:37:23;19.95;;;11.50;;
74229;SDS011;62589;12.568;99.958;2024-03-23T05:39:50;22.30;;;12.00;;
74229;SDS011;62589;12.568;99.958;2024-03-23T05:42:17;20.85;;;12.15;;
74229;SDS011;62589;12.568;99.958;2024-03-23T05:44:44;19.83;;;11.15;;
74229;SDS011;62589;12.568;99.958;2024-03-23T05:47:11;23.70;;;12.15;;
74229;SDS011;62589;12.568;99.958;2024-03-23T05:49:42;23.35;;;11.60;;
74229;SDS011;62589;12.568;99.958;2024-03-23T05:52:09;22.85;;;12.55;;
74229;SDS011;62589;12.568;99.958;2024-03-23T05:54:36;23.15;;;11.57;;
74229;SDS011;62589;12.568;99.958;2024-03-23T05:57:03;24.20;;;12.15;;
74229;SDS011;62589;12.568;99.958;2024-03-23T05:59:29;24.98;;;11.15;;
74229;SDS011;62589;12.568;99.958;2024-03-23T06:01:56;23.42;;;11.65;;
74229;SDS011;62589;12.568;99.958;2024-03-23T06:04:23;27.48;;;12.10;;
74229;SDS011;62589;12.568;99.958;2024-03-23T06:06:50;21.70;;;12.55;;
74229;SDS011;62589;12.568;99.958;2024-03-23T06:09:18;22.90;;;11.77;;
74229;SDS011;62589;12.568;99.958;2024-03-23T06:11:48;21.50;;;12.02;;
74229;SDS011;62589;12.568;99.958;2024-03-23T06:14:15;21.90;;;12.25;;
74229;SDS011;62589;12.568;99.958;2024-03-23T06:16:41;22.63;;;12.23;;
74229;SDS011;62589;12.568;99.958;2024-03-23T06:19:08;22.55;;;12.50;;
74229;SDS011;62589;12.568;99.958;2024-03-23T06:21:35;20.23;;;11.55;;
74229;SDS011;62589;12.568;99.958;2024-03-23T06:24:01;22.73;;;11.93;;
74229;SDS011;62589;12.568;99.958;2024-03-23T06:26:28;20.40;;;11.95;;
74229;SDS011;62589;12.568;99.958;2024-03-23T06:28:55;23.20;;;11.27;;
74229;SDS011;62589;12.568;99.958;2024-03-23T06:31:22;24.40;;;11.40;;
74229;SDS011;62589;12.568;99.958;2024-03-23T06:33:48;21.00;;;11.32;;
74229;SDS011;62589;12.568;99.958;2024-03-23T06:36:15;19.02;;;10.82;;
74229;SDS011;62589;12.568;99.958;2024-03-23T06:38:42;27.08;;;11.82;;
74229;SDS011;62589;12.568;99.958;2024-03-23T06:41:08;21.85;;;11.27;;
74229;SDS011;62589;12.568;99.958;2024-03-23T06:43:35;19.65;;;11.35;;
74229;SDS011;62589;12.568;99.958;2024-03-23T06:46:02;19.67;;;11.65;;
74229;SDS011;62589;12.568;99.958;2024-03-23T06:48:30;16.98;;;9.65;;
74229;SDS011;62589;12.568;99.958;2024-03-23T06:50:57;19.90;;;10.73;;
74229;SDS011;62589;12.568;99.958;2024-03-23T06:53:23;14.27;;;9.75;;
74229;SDS011;62589;12.568;99.958;2024-03-23T06:55:51;17.65;;;9.75;;
74229;SDS011;62589;12.568;99.958;2024-03-23T06:58:24;18.55;;;10.02;;
74229;SDS011;62589;12.568;99.958;2024-03-23T07:00:51;17.42;;;10.07;;
74229;SDS011;62589;12.568;99.958;2024-03-23T07:03:17;17.73;;;9.75;;
74229;SDS011;62589;12.568;99.958;2024-03-23T07:05:44;15.85;;;9.57;;
74229;SDS011;62589;12.568;99.958;2024-03-23T07:08:11;17.38;;;10.13;;
74229;SDS011;62589;12.568;99.958;2024-03-23T07:10:41;17.63;;;10.23;;
74229;SDS011;62589;12.568;99.958;2024-03-23T07:13:08;21.17;;;10.23;;
74229;SDS011;62589;12.568;99.958;2024-03-23T07:15:35;15.82;;;8.93;;
74229;SDS011;62589;12.568;99.958;2024-03-23T07:18:01;17.25;;;9.77;;
74229;SDS011;62589;12.568;99.958;2024-03-23T07:20:29;17.27;;;9.57;;
74229;SDS011;62589;12.568;99.958;2024-03-23T07:22:56;17.63;;;10.32;;
74229;SDS011;62589;12.568;99.958;2024-03-23T07:25:23;20.02;;;9.93;;
74229;SDS011;62589;12.568;99.958;2024-03-23T07:27:52;21.95;;;10.00;;
74229;SDS011;62589;12.568;99.958;2024-03-23T07:30:19;20.58;;;10.07;;
74229;SDS011;62589;12.568;99.958;2024-03-23T07:32:46;21.42;;;10.93;;
74229;SDS011;62589;12.568;99.958;2024-03-23T07:35:13;19.45;;;10.10;;
74229;SDS011;62589;12.568;99.958;2024-03-23T07:37:39;15.70;;;10.15;;
74229;SDS011;62589;12.568;99.958;2024-03-23T07:40:07;19.17;;;10.25;;
74229;SDS011;62589;12.568;99.958;2024-03-23T07:42:34;19.92;;;10.02;;
74229;SDS011;62589;12.568;99.958;2024-03-23T07:45:01;17.67;;;9.57;;
74229;SDS011;62589;12.568;99.958;2024-03-23T07:47:28;22.42;;;11.05;;
74229;SDS011;62589;12.568;99.958;2024-03-23T07:49:54;19.60;;;10.30;;
74229;SDS011;62589;12.568;99.958;2024-03-23T07:52:21;19.73;;;10.32;;
74229;SDS011;62589;12.568;99.958;2024-03-23T07:54:47;17.63;;;9.80;;
74229;SDS011;62589;12.568;99.958;2024-03-23T07:57:14;18.92;;;10.30;;
74229;SDS011;62589;12.568;99.958;2024-03-23T07:59:40;17.83;;;10.38;;
74229;SDS011;62589;12.568;99.958;2024-03-23T08:02:07;23.95;;;10.98;;
74229;SDS011;62589;12.568;99.958;2024-03-23T08:04:34;16.35;;;10.18;;
74229;SDS011;62589;12.568;99.958;2024-03-23T08:07:00;17.25;;;9.63;;
74229;SDS011;62589;12.568;99.958;2024-03-23T08:09:27;20.15;;;9.98;;
74229;SDS011;62589;12.568;99.958;2024-03-23T08:11:54;21.23;;;9.70;;
74229;SDS011;62589;12.568;99.958;2024-03-23T08:14:20;18.65;;;10.07;;
74229;SDS011;62589;12.568;99.958;2024-03-23T08:16:47;23.45;;;10.55;;
74229;SDS011;62589;12.568;99.958;2024-03-23T08:19:15;17.45;;;10.05;;
74229;SDS011;62589;12.568;99.958;2024-03-23T08:21:42;22.85;;;9.73;;
74229;SDS011;62589;12.568;99.958;2024-03-23T08:24:08;17.98;;;10.30;;
74229;SDS011;62589;12.568;99.958;2024-03-23T08:26:35;17.50;;;9.18;;
74229;SDS011;62589;12.568;99.958;2024-03-23T08:29:03;18.25;;;9.80;;
74229;SDS011;62589;12.568;99.958;2024-03-23T08:31:30;17.55;;;10.57;;
74229;SDS011;62589;12.568;99.958;2024-03-23T08:33:57;16.08;;;9.63;;
74229;SDS011;62589;12.568;99.958;2024-03-23T08:36:23;19.25;;;10.70;;
74229;SDS011;62589;12.568;99.958;2024-03-23T08:38:50;22.70;;;11.00;;
74229;SDS011;62589;12.568;99.958;2024-03-23T08:41:19;20.40;;;10.25;;
74229;SDS011;62589;12.568;99.958;2024-03-23T08:43:45;20.77;;;10.35;;
74229;SDS011;62589;12.568;99.958;2024-03-23T08:46:13;22.80;;;11.18;;
74229;SDS011;62589;12.568;99.958;2024-03-23T08:48:42;20.25;;;10.50;;
74229;SDS011;62589;12.568;99.958;2024-03-23T08:51:11;22.02;;;10.73;;
74229;SDS011;62589;12.568;99.958;2024-03-23T08:53:39;22.98;;;10.50;;
74229;SDS011;62589;12.568;99.958;2024-03-23T08:56:07;19.65;;;10.38;;
74229;SDS011;62589;12.568;99.958;2024-03-23T08:58:35;20.77;;;9.98;;
74229;SDS011;62589;12.568;99.958;2024-03-23T09:01:03;20.17;;;10.63;;
74229;SDS011;62589;12.568;99.958;2024-03-23T09:03:32;19.92;;;10.70;;
74229;SDS011;62589;12.568;99.958;2024-03-23T09:05:59;17.08;;;10.18;;
74229;SDS011;62589;12.568;99.958;2024-03-23T09:08:26;15.98;;;9.70;;
74229;SDS011;62589;12.568;99.958;2024-03-23T09:10:53;17.67;;;10.27;;
74229;SDS011;62589;12.568;99.958;2024-03-23T09:13:20;18.45;;;9.75;;
74229;SDS011;62589;12.568;99.958;2024-03-23T09:15:50;20.58;;;10.00;;
74229;SDS011;62589;12.568;99.958;2024-03-23T09:18:22;21.30;;;10.45;;
74229;SDS011;62589;12.568;99.958;2024-03-23T09:20:49;17.30;;;9.95;;
74229;SDS011;62589;12.568;99.958;2024-03-23T09:23:16;21.77;;;9.95;;
74229;SDS011;62589;12.568;99.958;2024-03-23T09:25:43;17.83;;;9.80;;
74229;SDS011;62589;12.568;99.958;2024-03-23T09:28:10;18.27;;;9.93;;
74229;SDS011;62589;12.568;99.958;2024-03-23T09:30:36;19.10;;;10.30;;
74229;SDS011;62589;12.568;99.958;2024-03-23T09:33:10;18.58;;;9.60;;
74229;SDS011;62589;12.568;99.958;2024-03-23T09:35:42;18.42;;;10.75;;
74229;SDS011;62589;12.568;99.958;2024-03-23T09:38:12;25.02;;;11.00;;
74229;SDS011;62589;12.568;99.958;2024-03-23T09:40:42;18.58;;;9.35;;
74229;SDS011;62589;12.568;99.958;2024-03-23T09:43:09;18.52;;;9.95;;
74229;SDS011;62589;12.568;99.958;2024-03-23T09:45:39;22.60;;;10.63;;
74229;SDS011;62589;12.568;99.958;2024-03-23T09:48:09;21.92;;;10.52;;
74229;SDS011;62589;12.568;99.958;2024-03-23T09:50:37;21.55;;;10.80;;
74229;SDS011;62589;12.568;99.958;2024-03-23T09:53:08;21.15;;;11.15;;
74229;SDS011;62589;12.568;99.958;2024-03-23T09:55:42;20.33;;;11.23;;
74229;SDS011;62589;12.568;99.958;2024-03-23T09:58:15;20.13;;;10.15;;
74229;SDS011;62589;12.568;99.958;2024-03-23T10:00:43;17.45;;;10.25;;
74229;SDS011;62589;12.568;99.958;2024-03-23T10:03:10;20.23;;;10.32;;
74229;SDS011;62589;12.568;99.958;2024-03-23T10:05:37;17.98;;;9.65;;
74229;SDS011;62589;12.568;99.958;2024-03-23T10:10:40;19.27;;;10.20;;
74229;SDS011;62589;12.568;99.958;2024-03-23T10:13:07;27.77;;;10.63;;
74229;SDS011;62589;12.568;99.958;2024-03-23T10:15:34;21.90;;;10.55;;
74229;SDS011;62589;12.568;99.958;2024-03-23T10:18:18;23.40;;;9.88;;
74229;SDS011;62589;12.568;99.958;2024-03-23T10:23:38;18.25;;;10.45;;
74229;SDS011;62589;12.568;99.958;2024-03-23T10:26:22;20.48;;;10.57;;
74229;SDS011;62589;12.568;99.958;2024-03-23T10:31:23;17.55;;;10.98;;
74229;SDS011;62589;12.568;99.958;2024-03-23T10:33:50;19.60;;;10.30;;
74229;SDS011;62589;12.568;99.958;2024-03-23T10:36:22;20.95;;;10.73;;
74229;SDS011;62589;12.568;99.958;2024-03-23T10:38:51;19.15;;;10.50;;
74229;SDS011;62589;12.568;99.958;2024-03-23T10:41:21;22.35;;;11.30;;
74229;SDS011;62589;12.568;99.958;2024-03-23T10:43:48;20.15;;;9.93;;
74229;SDS011;62589;12.568;99.958;2024-03-23T10:46:15;18.42;;;10.80;;
74229;SDS011;62589;12.568;99.958;2024-03-23T10:48:42;21.60;;;10.90;;
74229;SDS011;62589;12.568;99.958;2024-03-23T10:51:10;17.92;;;10.40;;
74229;SDS011;62589;12.568;99.958;2024-03-23T10:53:38;20.27;;;9.93;;
74229;SDS011;62589;12.568;99.958;2024-03-23T10:56:05;18.48;;;9.63;;
74229;SDS011;62589;12.568;99.958;2024-03-23T11:01:04;18.90;;;10.27;;
74229;SDS011;62589;12.568;99.958;2024-03-23T11:03:35;22.23;;;10.15;;
74229;SDS011;62589;12.568;99.958;2024-03-23T11:06:05;21.20;;;11.02;;
74229;SDS011;62589;12.568;99.958;2024-03-23T11:08:36;22.92;;;10.52;;
74229;SDS011;62589;12.568;99.958;2024-03-23T11:11:14;15.07;;;10.15;;
74229;SDS011;62589;12.568;99.958;2024-03-23T11:13:48;20.25;;;10.68;;
74229;SDS011;62589;12.568;99.958;2024-03-23T11:16:21;18.08;;;10.40;;
74229;SDS011;62589;12.568;99.958;2024-03-23T11:18:50;19.80;;;9.90;;
74229;SDS011;62589;12.568;99.958;2024-03-23T11:24:19;17.27;;;9.68;;
74229;SDS011;62589;12.568;99.958;2024-03-23T11:26:46;20.35;;;9.13;;
74229;SDS011;62589;12.568;99.958;2024-03-23T11:29:14;17.88;;;9.10;;
74229;SDS011;62589;12.568;99.958;2024-03-23T11:31:48;16.38;;;9.02;;
74229;SDS011;62589;12.568;99.958;2024-03-23T11:34:17;17.40;;;9.20;;
74229;SDS011;62589;12.568;99.958;2024-03-23T11:36:44;15.65;;;8.73;;
74229;SDS011;62589;12.568;99.958;2024-03-23T11:39:15;12.57;;;8.52;;
74229;SDS011;62589;12.568;99.958;2024-03-23T11:41:52;17.75;;;9.18;;
74229;SDS011;62589;12.568;99.958;2024-03-23T11:44:21;19.88;;;8.48;;
74229;SDS011;62589;12.568;99.958;2024-03-23T11:46:49;13.70;;;8.35;;
74229;SDS011;62589;12.568;99.958;2024-03-23T11:49:26;14.65;;;8.38;;
74229;SDS011;62589;12.568;99.958;2024-03-23T11:51:54;15.52;;;8.40;;
74229;SDS011;62589;12.568;99.958;2024-03-23T11:54:25;16.70;;;8.43;;
74229;SDS011;62589;12.568;99.958;2024-03-23T11:56:58;17.30;;;8.80;;
74229;SDS011;62589;12.568;99.958;2024-03-23T11:59:37;16.27;;;8.10;;
74229;SDS011;62589;12.568;99.958;2024-03-23T12:02:10;14.48;;;8.98;;
74229;SDS011;62589;12.568;99.958;2024-03-23T12:04:40;15.90;;;8.13;;
74229;SDS011;62589;12.568;99.958;2024-03-23T12:09:37;13.23;;;8.73;;
74229;SDS011;62589;12.568;99.958;2024-03-23T12:12:08;12.75;;;8.63;;
74229;SDS011;62589;12.568;99.958;2024-03-23T12:14:36;14.85;;;8.65;;
74229;SDS011;62589;12.568;99.958;2024-03-23T12:17:10;19.00;;;8.73;;
74229;SDS011;62589;12.568;99.958;2024-03-23T12:19:38;15.35;;;9.45;;
74229;SDS011;62589;12.568;99.958;2024-03-23T12:22:05;12.93;;;7.95;;
74229;SDS011;62589;12.568;99.958;2024-03-23T12:24:32;15.38;;;8.77;;
74229;SDS011;62589;12.568;99.958;2024-03-23T12:27:05;17.20;;;9.40;;
74229;SDS011;62589;12.568;99.958;2024-03-23T12:29:32;15.57;;;9.32;;
74229;SDS011;62589;12.568;99.958;2024-03-23T12:32:02;16.60;;;9.18;;
74229;SDS011;62589;12.568;99.958;2024-03-23T12:34:29;16.08;;;9.55;;
74229;SDS011;62589;12.568;99.958;2024-03-23T12:36:58;16.92;;;8.80;;
74229;SDS011;62589;12.568;99.958;2024-03-23T12:39:25;17.92;;;9.70;;
74229;SDS011;62589;12.568;99.958;2024-03-23T12:41:52;18.08;;;9.70;;
74229;SDS011;62589;12.568;99.958;2024-03-23T12:44:19;20.05;;;9.48;;
74229;SDS011;62589;12.568;99.958;2024-03-23T12:46:46;19.40;;;9.35;;
74229;SDS011;62589;12.568;99.958;2024-03-23T12:49:13;13.88;;;9.75;;
74229;SDS011;62589;12.568;99.958;2024-03-23T12:51:42;14.15;;;9.38;;
74229;SDS011;62589;12.568;99.958;2024-03-23T12:54:19;21.08;;;10.50;;
74229;SDS011;62589;12.568;99.958;2024-03-23T12:56:46;20.85;;;9.80;;
74229;SDS011;62589;12.568;99.958;2024-03-23T12:59:13;18.45;;;10.55;;
74229;SDS011;62589;12.568;99.958;2024-03-23T13:01:39;20.00;;;10.27;;
74229;SDS011;62589;12.568;99.958;2024-03-23T13:04:06;16.67;;;9.88;;
74229;SDS011;62589;12.568;99.958;2024-03-23T13:06:33;15.45;;;9.23;;
74229;SDS011;62589;12.568;99.958;2024-03-23T13:09:03;17.77;;;9.80;;
74229;SDS011;62589;12.568;99.958;2024-03-23T13:11:30;18.90;;;10.27;;
74229;SDS011;62589;12.568;99.958;2024-03-23T13:13:57;23.70;;;10.60;;
74229;SDS011;62589;12.568;99.958;2024-03-23T13:16:24;15.43;;;9.77;;
74229;SDS011;62589;12.568;99.958;2024-03-23T13:18:50;22.10;;;11.35;;
74229;SDS011;62589;12.568;99.958;2024-03-23T13:21:17;14.80;;;9.35;;
74229;SDS011;62589;12.568;99.958;2024-03-23T13:23:47;18.50;;;11.15;;
74229;SDS011;62589;12.568;99.958;2024-03-23T13:26:15;16.70;;;11.02;;
74229;SDS011;62589;12.568;99.958;2024-03-23T13:28:42;19.83;;;11.43;;
74229;SDS011;62589;12.568;99.958;2024-03-23T13:31:10;17.45;;;10.32;;
74229;SDS011;62589;12.568;99.958;2024-03-23T13:33:36;15.35;;;10.30;;
74229;SDS011;62589;12.568;99.958;2024-03-23T13:36:03;16.60;;;10.40;;
74229;SDS011;62589;12.568;99.958;2024-03-23T13:38:30;17.83;;;11.00;;
74229;SDS011;62589;12.568;99.958;2024-03-23T13:40:57;16.10;;;10.15;;
74229;SDS011;62589;12.568;99.958;2024-03-23T13:43:26;20.00;;;10.73;;
74229;SDS011;62589;12.568;99.958;2024-03-23T13:45:54;17.75;;;10.60;;
74229;SDS011;62589;12.568;99.958;2024-03-23T13:48:23;18.35;;;11.70;;
74229;SDS011;62589;12.568;99.958;2024-03-23T13:50:57;18.02;;;10.52;;
74229;SDS011;62589;12.568;99.958;2024-03-23T13:53:25;20.85;;;11.00;;
74229;SDS011;62589;12.568;99.958;2024-03-23T13:55:52;17.27;;;11.07;;
74229;SDS011;62589;12.568;99.958;2024-03-23T13:58:19;18.05;;;11.18;;
74229;SDS011;62589;12.568;99.958;2024-03-23T14:00:46;18.27;;;10.93;;
74229;SDS011;62589;12.568;99.958;2024-03-23T14:03:13;14.18;;;10.93;;
74229;SDS011;62589;12.568;99.958;2024-03-23T14:05:40;17.42;;;10.95;;
74229;SDS011;62589;12.568;99.958;2024-03-23T14:08:07;16.90;;;11.60;;
74229;SDS011;62589;12.568;99.958;2024-03-23T14:10:35;23.23;;;10.90;;
74229;SDS011;62589;12.568;99.958;2024-03-23T14:13:06;24.13;;;11.13;;
74229;SDS011;62589;12.568;99.958;2024-03-23T14:15:33;18.90;;;11.50;;
74229;SDS011;62589;12.568;99.958;2024-03-23T14:18:02;18.67;;;11.25;;
74229;SDS011;62589;12.568;99.958;2024-03-23T14:20:29;19.35;;;11.18;;
74229;SDS011;62589;12.568;99.958;2024-03-23T14:22:56;17.52;;;11.45;;
74229;SDS011;62589;12.568;99.958;2024-03-23T14:25:22;18.75;;;11.48;;
74229;SDS011;62589;12.568;99.958;2024-03-23T14:27:52;20.00;;;11.55;;
74229;SDS011;62589;12.568;99.958;2024-03-23T14:30:19;21.95;;;11.55;;
74229;SDS011;62589;12.568;99.958;2024-03-23T14:32:46;19.63;;;11.25;;
74229;SDS011;62589;12.568;99.958;2024-03-23T14:35:12;19.90;;;11.38;;
74229;SDS011;62589;12.568;99.958;2024-03-23T14:37:39;21.77;;;12.05;;
74229;SDS011;62589;12.568;99.958;2024-03-23T14:40:07;20.73;;;11.57;;
74229;SDS011;62589;12.568;99.958;2024-03-23T14:42:38;18.88;;;11.30;;
74229;SDS011;62589;12.568;99.958;2024-03-23T14:45:05;21.88;;;12.93;;
74229;SDS011;62589;12.568;99.958;2024-03-23T14:47:32;20.38;;;12.80;;
74229;SDS011;62589;12.568;99.958;2024-03-23T14:49:59;21.92;;;11.45;;
74229;SDS011;62589;12.568;99.958;2024-03-23T14:52:26;25.05;;;12.43;;
74229;SDS011;62589;12.568;99.958;2024-03-23T14:54:53;21.70;;;12.40;;
74229;SDS011;62589;12.568;99.958;2024-03-23T14:57:21;28.38;;;12.55;;
74229;SDS011;62589;12.568;99.958;2024-03-23T14:59:48;23.92;;;12.63;;
74229;SDS011;62589;12.568;99.958;2024-03-23T15:02:14;18.77;;;11.60;;
74229;SDS011;62589;12.568;99.958;2024-03-23T15:04:41;20.90;;;12.70;;
74229;SDS011;62589;12.568;99.958;2024-03-23T15:07:08;22.33;;;13.05;;
74229;SDS011;62589;12.568;99.958;2024-03-23T15:09:35;22.25;;;13.20;;
74229;SDS011;62589;12.568;99.958;2024-03-23T15:12:02;22.88;;;14.25;;
74229;SDS011;62589;12.568;99.958;2024-03-23T15:14:28;24.85;;;14.55;;
74229;SDS011;62589;12.568;99.958;2024-03-23T15:16:55;20.92;;;14.07;;
74229;SDS011;62589;12.568;99.958;2024-03-23T15:19:22;18.65;;;14.40;;
74229;SDS011;62589;12.568;99.958;2024-03-23T15:21:48;24.30;;;17.02;;
74229;SDS011;62589;12.568;99.958;2024-03-23T15:24:16;21.85;;;16.58;;